Tiempo atmosférico en la estación meteorológica de San Pablo De Los Montes, Toledo (917 m.)



Fecha
DESCASC
Temp. máxima en grados centígrados (hora)
DESCASC
Temp. mínima en grados centígrados (hora)
DESCASC
Temp. media en grados centígrados
DESCASC
Racha de viento máxima en m/sg (hora)
DESCASC
Velocidad máxima media en intervalos de 10 minutos(hora)
DESCASC
Precipitaciones diarias en mm
DESCASC
Precipitaciones de 00:00 a 06:00 en mm
DESCASC
Precipitaciones de 06:00 a 12:00 en mm
DESCASC
Precipitaciones de 12:00 a 18:00 en mm
DESCASC
Precipitaciones de 18:00 a 24:00 en mm
DESCASC
22-04-2019 15.5 (19:00) 4.7 (07:40) 10.1 13.33 (22:00) 7.5 (22:30) 0 0 0 0 0
21-04-2019 12.6 (15:10) 5.6 (05:10) 9.1 9.72 (00:20) 3.61 (00:30) 0.1 0.1 0 0 0
20-04-2019 13.2 (16:00) 5.8 (00:10) 9.5 12.78 (23:10) 5.56 (23:10) 8.7 7.9 0.1 0 0.7
19-04-2019 10.1 (14:40) 5.8 (23:50) 8 9.44 (15:10) 4.17 (15:10) 8.7 0.3 0.8 2.7 4.9
18-04-2019 10.2 (17:10) 6.7 (00:00) 8.4 9.17 (02:30) 3.61 (04:40) 11.9 2.6 1.4 4.4 3.5
17-04-2019 20.2 (15:10) 8.8 (00:00) 14.5 10.83 (18:00) 6.39 (18:00) 0 0 0 0 0
16-04-2019 19.8 (18:50) 5.8 (00:00) 12.8 8.33 (14:30) 4.44 (00:10) 0 0 0 0 0
15-04-2019 20.8 (15:00) 9.8 (00:00) 15.3 14.44 (15:00) 7.5 (17:10) 0 0 0 0 0
14-04-2019 20.7 (17:20) 9.4 (00:00) 15.1 8.33 (21:40) 5.56 (20:40) 0 0 0 0 0
13-04-2019 19.8 (17:00) 5.9 (00:00) 12.8 8.33 (21:10) 5 (21:10) 0 0 0 0 0
12-04-2019 16.4 (17:50) 4.4 (04:50) 10.4 8.61 (12:00) 3.89 (12:00) 0 0 0 0 0
11-04-2019 14.7 (19:00) 2.4 (00:00) 8.5 9.17 (12:50) 4.17 (19:10) 0.1 0.1 0 0 0
10-04-2019 13.2 (17:00) 3.3 (00:00) 8.2 11.67 (02:00) 6.94 (02:10) 2.4 0 0 0 2.4
09-04-2019 11.8 (17:50) 4.4 (00:00) 8.1 15.83 (15:20) 7.5 (17:30) 2.6 0 0.7 1.9 0
08-04-2019 13.5 (16:40) 6.7 (00:00) 10.1 16.39 (05:50) 8.89 (05:10) 5.6 3.5 1.9 0.2 0
07-04-2019 9.1 (13:30) 3.1 (00:00) 6.1 15.28 (00:50) 9.17 (01:40) 1.7 0.1 0 0.1 1.5
06-04-2019 7.2 (14:30) 1.7 (00:00) 4.4 16.94 (21:00) 10 (11:40) 4.5 0.7 3.3 0.4 0.1
05-04-2019 7.6 (00:00) 2.2 (00:00) 4.9 15.83 (05:00) 10 (05:00) 16.3 1.2 10.4 3.9 0.8
04-04-2019 12.9 (18:20) -0.8 (-00:0) 6 11.11 (23:59) 5.56 (23:20) 0 0 0 0 0
03-04-2019 15.3 (16:20) 4.3 (23:50) 9.8 12.22 (14:40) 6.94 (09:20) 0.1 0 0.1 0 0
02-04-2019 14.6 (18:10) 0 (00:00) 7.3 11.11 (23:40) 7.22 (20:50) 3.5 0 1.7 1.8 0
01-04-2019 13.2 (18:20) 4.7 (00:00) 8.9 7.78 (23:10) 5.56 (23:20) 0 0 0 0 0
31-03-2019 10.1 (00:50) 4.7 (00:00) 7.4 6.11 (17:20) 3.06 (11:50) 0 0 0 0 0
30-03-2019 17.2 (16:00) 1.3 (00:00) 9.3 7.5 (15:40) 4.17 (02:20) 0 0 0 0 0
29-03-2019 16.5 (17:00) 2.1 (00:00) 9.3 7.5 (15:30) 3.33 (10:10) 0 0 0 0 0
28-03-2019 16.2 (16:10) 5.6 (00:00) 10.9 9.17 (10:20) 3.89 (16:10) 0 0 0 0 0
27-03-2019 15.1 (15:40) 0.8 (00:00) 8 9.17 (00:40) 3.89 (12:50) 0 0 0 0 0
26-03-2019 18.4 (16:20) -0.4 (00:00) 9 11.67 (14:20) 5.56 (13:30) 0 0 0 0 0
25-03-2019 18.9 (16:20) 7 (00:00) 12.9 14.72 (12:40) 3.89 (16:40) 0 0 0 0 0

Gráficas

Temp. máximas Temp. mínimas Temp. medias Precipitaciones Rachas de viento máximas Velocidades máximas media en intervalos de 10 minutos

Datos horarios

Fecha y hora oficial Temperatura (ºC) Velocidad del viento (km/h) Dirección del viento Racha (km/h) Dirección de racha Precipitación (mm) Presión (hPa) Tendencia (hPa) Humedad (%)
2019-04-23 23:00:00 3.5 20 Sudoeste 43 Sudoeste 0 -- -- 82
2019-04-23 22:00:00 3.7 22 Sudoeste 45 Sur 0.3 -- -- 78
2019-04-23 21:00:00 4.1 16 Sudoeste 51 Sudoeste 2.4 -- -- 79
2019-04-23 20:00:00 5.3 19 Sudoeste 31 Sudoeste 0 -- -- 74
2019-04-23 19:00:00 6.2 17 Sudoeste 48 Sudoeste 0 -- -- 70
2019-04-23 18:00:00 4.6 27 Sudoeste 45 Sudoeste 0.7 -- -- 77
2019-04-23 17:00:00 4.1 21 Sudoeste 51 Sur 0.4 -- -- 70
2019-04-23 16:00:00 6.6 17 Sudoeste 58 Sudoeste 0.1 -- -- 61
2019-04-23 15:00:00 7.6 16 Sudoeste 43 Sudoeste 1.3 -- -- 65
2019-04-23 14:00:00 7.4 21 Sudoeste 46 Sudoeste 0 -- -- 53
2019-04-23 13:00:00 7 27 Sudoeste 44 Oeste 0 -- -- 57
2019-04-23 12:00:00 5.4 17 Sudoeste 40 Oeste 0.1 -- -- 75
2019-04-23 11:00:00 5.6 14 Sudoeste 30 Sudoeste 0.2 -- -- 83
2019-04-23 10:00:00 5.7 8 Sudoeste 34 Sudoeste 0.2 -- -- 84
2019-04-23 09:00:00 5.7 16 Sudoeste 51 Sudoeste 0.5 -- -- 82
2019-04-23 08:00:00 6.4 20 Sudoeste 49 Oeste 0.7 -- -- 79
2019-04-23 07:00:00 7.2 19 Sudoeste 39 Sudoeste 1.6 -- -- 83
2019-04-23 06:00:00 8.3 10 Sur 40 Sur 0 -- -- 71
2019-04-23 05:00:00 8.7 12 Sur 44 Sudoeste 0 -- -- 72
2019-04-23 04:00:00 9.2 26 Sur 47 Sudoeste 0 -- -- 59
2019-04-23 03:00:00 10.3 18 Sudoeste 37 Sudoeste 0 -- -- 51
2019-04-23 02:00:00 10.8 11 Sudoeste 32 Sur 0 -- -- 47
2019-04-23 01:00:00 11.1 13 Sudoeste 36 Oeste 0 -- -- 45
2019-04-23 00:00:00 11.4 15 Sudoeste 36 Sudoeste 0 -- -- 45
2019-04-22 23:00:00 11.9 20 Sudoeste 44 Sudoeste 0 -- -- 42
2019-04-22 22:00:00 12.5 22 Sudoeste 48 Sudoeste 0 -- -- 42
2019-04-22 21:00:00 13 15 Sur 26 Sur 0 -- -- 42
2019-04-22 20:00:00 13.6 9 Sudoeste 27 Sudoeste 0 -- -- 42
2019-04-22 19:00:00 15 10 Oeste 27 Sudoeste 0 -- -- 41
2019-04-22 18:00:00 13.3 14 Sudoeste 28 Sudoeste 0 -- -- 44
2019-04-22 17:00:00 13.8 11 Oeste 31 Sudoeste 0 -- -- 43
2019-04-22 16:00:00 13.9 10 Sudoeste 22 Sudoeste 0 -- -- 42
2019-04-22 15:00:00 13.5 6 Sudoeste 16 Sudoeste 0 -- -- 42
2019-04-22 14:00:00 12.8 3 Noroeste 17 Oeste 0 -- -- 45
2019-04-22 13:00:00 12.6 9 Norte 17 Norte 0 -- -- 47
2019-04-22 12:00:00 10.5 6 Norte 13 Norte 0 -- -- 53
2019-04-22 11:00:00 10.1 5 Norte 12 Oeste 0 -- -- 60
2019-04-22 10:00:00 8.7 3 Noroeste 12 Oeste 0 -- -- 64
2019-04-22 09:00:00 7.1 6 Oeste 10 Oeste 0 -- -- 80
2019-04-22 08:00:00 4.9 4 Sudoeste 7 Sudoeste 0 -- -- 83
2019-04-22 07:00:00 5 4 Sudoeste 7 Sudoeste 0 -- -- 81
2019-04-22 06:00:00 5.6 3 Sudoeste 8 Oeste 0 -- -- 81
2019-04-22 05:00:00 6.2 5 Sudoeste 8 Oeste 0 -- -- 80
2019-04-22 04:00:00 6.2 4 Sudoeste 9 Oeste 0 -- -- 80
2019-04-22 03:00:00 6.2 3 Sudoeste 6 Sudoeste 0 -- -- 79
2019-04-22 02:00:00 7 2 Oeste 6 Oeste 0 -- -- 77
2019-04-22 01:00:00 6.9 0 Calma 4 Nordeste 0 -- -- 75
2019-04-22 00:00:00 7.6 0 Calma 9 Nordeste 0 -- -- 72
2019-04-21 23:00:00 7.9 3 Norte 14 Nordeste 0 -- -- 69
2019-04-21 22:00:00 8.2 4 Nordeste 12 Nordeste 0 -- -- 65
2019-04-21 21:00:00 8.4 5 Norte 16 Nordeste 0 -- -- 63
2019-04-21 20:00:00 9.2 7 Norte 21 Nordeste 0 -- -- 59
2019-04-21 19:00:00 9.9 10 Nordeste 18 Nordeste 0 -- -- 55
2019-04-21 18:00:00 10.3 10 Nordeste 23 Nordeste 0 -- -- 55
2019-04-21 17:00:00 11.1 9 Norte 19 Nordeste 0 -- -- 51
2019-04-21 16:00:00 10.8 10 Norte 25 Norte 0 -- -- 51
2019-04-21 15:00:00 12.3 11 Nordeste 22 Nordeste 0 -- -- 51
2019-04-21 14:00:00 10.6 11 Norte 21 Norte 0 -- -- 58
2019-04-21 13:00:00 9 8 Norte 18 Norte 0 -- -- 68
2019-04-21 12:00:00 6.9 8 Norte 17 Norte 0 -- -- 73
2019-04-21 11:00:00 6.7 8 Nordeste 19 Nordeste 0 -- -- 73
2019-04-21 10:00:00 6.1 8 Norte 19 Nordeste 0 -- -- 77
2019-04-21 09:00:00 5.6 11 Nordeste 20 Nordeste 0 -- -- 81
2019-04-21 08:00:00 5.9 4 Norte 14 Este 0 -- -- 85
2019-04-21 07:00:00 5.8 4 Nordeste 10 Este 0 -- -- 86
2019-04-21 06:00:00 5.7 4 Sudoeste 6 Sudoeste 0 -- -- 86
2019-04-21 05:00:00 5.8 0 Calma 8 Nordeste 0 -- -- 85
2019-04-21 04:00:00 5.9 5 Norte 9 Nordeste 0 -- -- 82
2019-04-21 03:00:00 6.4 2 Este 13 Norte 0 -- -- 73
2019-04-21 02:00:00 6.7 2 Este 15 Este 0 -- -- 70
2019-04-21 01:00:00 6.9 6 Este 35 Este 0.1 -- -- 68
2019-04-21 00:00:00 6.4 11 Este 46 Este 0.7 -- -- 76
2019-04-20 23:00:00 7.4 14 Este 41 Este 0 -- -- 68
2019-04-20 22:00:00 7.5 12 Este 33 Este 0 -- -- 76
2019-04-20 21:00:00 7.9 14 Este 30 Este 0 -- -- 72
2019-04-20 20:00:00 9 4 Este 27 Este 0 -- -- 61
2019-04-20 19:00:00 9.6 8 Este 30 Este 0 -- -- 58
2019-04-20 18:00:00 11.2 10 Este 27 Sudeste 0 -- -- 51
2019-04-20 17:00:00 12.8 13 Este 31 Nordeste 0 -- -- 46
2019-04-20 16:00:00 12.9 14 Nordeste 31 Nordeste 0 -- -- 48
2019-04-20 15:00:00 12.5 11 Nordeste 26 Nordeste 0 -- -- 55
2019-04-20 14:00:00 11.3 10 Nordeste 27 Nordeste 0 -- -- 61
2019-04-20 13:00:00 9.5 7 Nordeste 19 Nordeste 0 -- -- 70
2019-04-20 12:00:00 8.6 9 Nordeste 14 Nordeste 0 -- -- 74
2019-04-20 11:00:00 7.9 7 Nordeste 14 Nordeste 0 -- -- 76
2019-04-20 10:00:00 7.7 4 Norte 13 Nordeste 0 -- -- 78
2019-04-20 09:00:00 7.4 4 Nordeste 20 Norte 0 -- -- 79
2019-04-20 08:00:00 6.9 8 Nordeste 28 Norte 0 -- -- 82
2019-04-20 07:00:00 6.7 5 Nordeste 17 Noroeste 0.1 -- -- 88
2019-04-20 06:00:00 6.3 3 Sudoeste 10 Sudoeste 0 -- -- 88
2019-04-20 05:00:00 6.6 3 Norte 9 Norte 0.5 -- -- 88
2019-04-20 04:00:00 6.4 0 Calma 11 Nordeste 0.6 -- -- 89
2019-04-20 03:00:00 6.3 0 Calma 13 Nordeste 3.9 -- -- 89
2019-04-20 02:00:00 6 4 Oeste 8 Sudoeste 1.1 -- -- 89
2019-04-20 01:00:00 6 4 Sudoeste 15 Sudoeste 1.8 -- -- 87
2019-04-20 00:00:00 5.9 8 Sudoeste 18 Norte 0.2 -- -- 86
2019-04-19 23:00:00 6.2 7 Norte 15 Norte 0.6 -- -- 85
2019-04-19 22:00:00 6.3 3 Este 18 Sudeste 1.2 -- -- 87
2019-04-19 21:00:00 6.5 5 Este 13 Este 1.3 -- -- 87
2019-04-19 20:00:00 6.6 3 Nordeste 16 Este 0.6 -- -- 86
2019-04-19 19:00:00 6.7 8 Nordeste 22 Nordeste 1 -- -- 88
2019-04-19 18:00:00 7 12 Nordeste 23 Este 1.1 -- -- 87
2019-04-19 17:00:00 7.5 9 Nordeste 27 Este 0.8 -- -- 85
2019-04-19 16:00:00 8.4 14 Este 34 Este 0.1 -- -- 76
2019-04-19 15:00:00 8.7 9 Nordeste 22 Nordeste 0.5 -- -- 74
2019-04-19 14:00:00 9.9 0 Calma 13 Sudoeste 0 -- -- 69
2019-04-19 13:00:00 9.6 3 Este 13 Este 0.2 -- -- 73
2019-04-19 12:00:00 9.4 8 Este 22 Este 0 -- -- 74
2019-04-19 11:00:00 9.1 4 Norte 10 Norte 0 -- -- 81
2019-04-19 10:00:00 7.5 0 Calma 4 Sudeste 0.4 -- -- 85
2019-04-19 09:00:00 7.1 0 Calma -- -- 0.1 -- -- 87
2019-04-19 08:00:00 6.6 0 Calma 3 Sudeste 0.1 -- -- 88
2019-04-19 07:00:00 6.7 2 Sudeste 3 Sudeste 0.2 -- -- 88
2019-04-19 06:00:00 6.9 0 Calma -- -- 0 -- -- 88
2019-04-19 05:00:00 6.9 0 Calma 5 Sudeste 0 -- -- 88
2019-04-19 04:00:00 6.8 0 Calma 3 Este 0 -- -- 87
2019-04-19 03:00:00 6.9 0 Calma 6 Sudoeste 0 -- -- 87
2019-04-19 02:00:00 6.6 3 Sur 5 Sur 0.1 -- -- 87
2019-04-19 01:00:00 6.7 0 Calma 6 Sudoeste 0.2 -- -- 88
2019-04-19 00:00:00 6.7 3 Sudoeste 6 Sudoeste 1.1 -- -- 88
2019-04-18 23:00:00 6.8 4 Oeste 7 Oeste 0 -- -- 88
2019-04-18 22:00:00 6.9 5 Noroeste 9 Noroeste 0 -- -- 88
2019-04-18 21:00:00 7.3 6 Oeste 10 Oeste 0.3 -- -- 88
2019-04-18 20:00:00 7.7 0 Calma 11 Noroeste 1.1 -- -- 85
2019-04-18 19:00:00 8.4 5 Noroeste 13 Norte 1 -- -- 81
2019-04-18 18:00:00 9.5 3 Nordeste 7 Nordeste 0 -- -- 71
2019-04-18 17:00:00 10.1 0 Calma 10 Este 0 -- -- 71
2019-04-18 16:00:00 8.4 9 Este 15 Este 0 -- -- 78
2019-04-18 15:00:00 8.1 4 Nordeste 12 Norte 0.4 -- -- 84
2019-04-18 14:00:00 7.4 3 Oeste 11 Norte 1.8 -- -- 88
2019-04-18 13:00:00 6.9 5 Oeste 10 Noroeste 2.2 -- -- 87
2019-04-18 12:00:00 7.8 8 Noroeste 13 Norte 0.2 -- -- 87
2019-04-18 11:00:00 7.7 4 Noroeste 9 Norte 0.2 -- -- 86
2019-04-18 10:00:00 7.6 0 Calma 5 Sur 1 -- -- 86
2019-04-18 09:00:00 7.4 0 Calma 8 Sudeste 0 -- -- 86
2019-04-18 08:00:00 7.1 4 Sudeste 6 Este 0 -- -- 86
2019-04-18 07:00:00 7 0 Calma 6 Sur 0 -- -- 84
2019-04-18 06:00:00 7.3 5 Sudoeste 18 Sudoeste 0.1 -- -- 80
2019-04-18 05:00:00 7.6 11 Sudoeste 27 Sudoeste 0.1 -- -- 78
2019-04-18 04:00:00 7.9 10 Sur 23 Sur 0.3 -- -- 85
2019-04-18 03:00:00 8.2 5 Sur 33 Sudoeste 0.8 -- -- 85
2019-04-18 02:00:00 8.7 11 Sudoeste 32 Sudoeste 1.3 -- -- 84
2019-04-18 01:00:00 9.2 10 Sudoeste 24 Sudoeste 0 -- -- 81
2019-04-18 00:00:00 9.7 10 Sudoeste 31 Sudoeste 0 -- -- 77
2019-04-17 23:00:00 11.4 16 Sudoeste 35 Sudoeste 0 -- -- 68
2019-04-17 22:00:00 13.6 5 Sudoeste 21 Sur 0 -- -- 52
2019-04-17 21:00:00 14.4 8 Sudoeste 23 Sudoeste 0 -- -- 48
2019-04-17 20:00:00 15.5 10 Sudoeste 30 Sudoeste 0 -- -- 46
2019-04-17 19:00:00 16.7 6 Sudoeste 37 Sudoeste 0 -- -- 44
2019-04-17 18:00:00 17.4 23 Sudoeste 39 Sudoeste 0 -- -- 41
2019-04-17 17:00:00 18.3 13 Sudoeste 23 Sudoeste 0 -- -- 41
2019-04-17 16:00:00 18.9 7 Sur 21 Sudoeste 0 -- -- 37
2019-04-17 15:00:00 19.7 7 Sur 21 Sudoeste 0 -- -- 36
2019-04-17 14:00:00 19.2 7 Sur 21 Sudoeste 0 -- -- 38
2019-04-17 13:00:00 17.7 4 Sudeste 23 Este 0 -- -- 42
2019-04-17 12:00:00 17.6 5 Sudeste 20 Sudeste 0 -- -- 43
2019-04-17 11:00:00 15.8 4 Sur 14 Sudeste 0 -- -- 47
2019-04-17 10:00:00 13 5 Oeste 8 Oeste 0 -- -- 58
2019-04-17 09:00:00 11.1 2 Nordeste 6 Nordeste 0 -- -- 59
2019-04-17 08:00:00 9.8 5 Sudoeste 12 Sudoeste 0 -- -- 55
2019-04-17 07:00:00 10.5 6 Sur 17 Sur 0 -- -- 51
2019-04-17 06:00:00 10.8 8 Sur 18 Sur 0 -- -- 50
2019-04-17 05:00:00 11.2 9 Sur 17 Sur 0 -- -- 49
2019-04-17 04:00:00 11.8 6 Sur 16 Sur 0 -- -- 47
2019-04-17 03:00:00 12.6 5 Sur 14 Sur 0 -- -- 45
2019-04-17 02:00:00 13.4 7 Sur 20 Sudoeste 0 -- -- 43
2019-04-17 01:00:00 13.8 8 Sur 24 Sudoeste 0 -- -- 40
2019-04-17 00:00:00 14 8 Sur 17 Sur 0 -- -- 36
2019-04-16 23:00:00 14.1 5 Sur 17 Sudeste 0 -- -- 37
2019-04-16 22:00:00 14 5 Sur 12 Sur 0 -- -- 38
2019-04-16 21:00:00 15.4 5 Sudeste 17 Sur 0 -- -- 35
2019-04-16 20:00:00 17.1 5 Sur 17 Sur 0 -- -- 33
2019-04-16 19:00:00 18.9 8 Sur 17 Sur 0 -- -- 31
2019-04-16 18:00:00 18.8 4 Sudeste 20 Este 0 -- -- 32
2019-04-16 17:00:00 18.6 7 Sudeste 26 Sudeste 0 -- -- 33
2019-04-16 16:00:00 18.4 8 Sudoeste 22 Sur 0 -- -- 32
2019-04-16 15:00:00 17.1 8 Sur 30 Sudeste 0 -- -- 35
2019-04-16 14:00:00 16.6 7 Sudeste 21 Sur 0 -- -- 37
2019-04-16 13:00:00 15.8 5 Sudeste 23 Sudeste 0 -- -- 41
2019-04-16 12:00:00 14.6 7 Sudeste 22 Sudeste 0 -- -- 42
2019-04-16 11:00:00 13.2 8 Este 15 Nordeste 0 -- -- 48
2019-04-16 10:00:00 12.4 4 Nordeste 11 Este 0 -- -- 50
2019-04-16 09:00:00 10.6 3 Este 7 Sudeste 0 -- -- 53
2019-04-16 08:00:00 6.4 0 Calma 5 Este 0 -- -- 58
2019-04-16 07:00:00 6.5 0 Calma 10 Sudoeste 0 -- -- 57
2019-04-16 06:00:00 6.5 4 Sudoeste 9 Sudoeste 0 -- -- 57
2019-04-16 05:00:00 6.5 5 Este 21 Sudoeste 0 -- -- 57
2019-04-16 04:00:00 8.9 15 Sudoeste 23 Sudoeste 0 -- -- 48
2019-04-16 03:00:00 8.2 7 Sudoeste 19 Sudoeste 0 -- -- 62
2019-04-16 02:00:00 7.5 8 Sudoeste 21 Oeste 0 -- -- 67
2019-04-16 01:00:00 8.9 9 Oeste 28 Oeste 0 -- -- 64
2019-04-16 00:00:00 10 15 Oeste 30 Sudoeste 0 -- -- 61
2019-04-15 23:00:00 10.1 14 Oeste 27 Sudoeste 0 -- -- 53
2019-04-15 22:00:00 11.2 17 Oeste 30 Oeste 0 -- -- 55
2019-04-15 21:00:00 12.4 6 Oeste 16 Noroeste 0 -- -- 63
2019-04-15 20:00:00 14.2 12 Noroeste 41 Oeste 0 -- -- 50
2019-04-15 19:00:00 17.3 23 Oeste 48 Sudoeste 0 -- -- 36
2019-04-15 18:00:00 18.2 25 Sudoeste 51 Sudoeste 0 -- -- 34
2019-04-15 17:00:00 19.2 24 Sudoeste 50 Sudoeste 0 -- -- 34
2019-04-15 16:00:00 19.3 24 Sudoeste 51 Oeste 0 -- -- 37
2019-04-15 15:00:00 19.9 18 Sudoeste 52 Oeste 0 -- -- 35
2019-04-15 14:00:00 20.1 14 Sudoeste 38 Sudoeste 0 -- -- 39
2019-04-15 13:00:00 19 14 Sur 39 Sudoeste 0 -- -- 46
2019-04-15 12:00:00 17.6 9 Sudoeste 26 Sur 0 -- -- 52
2019-04-15 11:00:00 16.3 15 Sur 29 Sur 0 -- -- 57
2019-04-15 10:00:00 14.3 9 Sur 19 Sur 0 -- -- 62
2019-04-15 09:00:00 14.9 4 Sur 22 Sur 0 -- -- 61
2019-04-15 08:00:00 12.6 9 Sur 18 Sur 0 -- -- 68
2019-04-15 07:00:00 12.7 9 Sudeste 15 Sudeste 0 -- -- 66
2019-04-15 06:00:00 12.6 0 Calma 21 Sudoeste 0 -- -- 64
2019-04-15 05:00:00 13.2 14 Sur 22 Sur 0 -- -- 69
2019-04-15 04:00:00 12.5 11 Sur 15 Sur 0 -- -- 71
2019-04-15 03:00:00 13.2 4 Sudeste 14 Sudeste 0 -- -- 66
2019-04-15 02:00:00 14.5 12 Sur 22 Sur 0 -- -- 61
2019-04-15 01:00:00 14.4 10 Sur 15 Sur 0 -- -- 59
2019-04-15 00:00:00 14.3 9 Sur 15 Sur 0 -- -- 65
2019-04-14 23:00:00 15.2 10 Sur 22 Sudoeste 0 -- -- 59
2019-04-14 22:00:00 15 10 Sudoeste 30 Sudoeste 0 -- -- 57
2019-04-14 21:00:00 15.1 18 Sudoeste 28 Sudoeste 0 -- -- 52
2019-04-14 20:00:00 17.4 13 Sudoeste 26 Sudoeste 0 -- -- 47
2019-04-14 19:00:00 19.8 14 Sudoeste 24 Sudoeste 0 -- -- 44
2019-04-14 18:00:00 20.2 9 Sudoeste 21 Sudoeste 0 -- -- 43
2019-04-14 17:00:00 19.8 12 Sudoeste 24 Sudoeste 0 -- -- 44
2019-04-14 16:00:00 19.9 14 Sudoeste 22 Sudoeste 0 -- -- 45
2019-04-14 15:00:00 18.9 9 Sudoeste 21 Oeste 0 -- -- 46
2019-04-14 14:00:00 18.9 8 Sudoeste 23 Oeste 0 -- -- 46
2019-04-14 13:00:00 18 6 Sudoeste 21 Sudoeste 0 -- -- 48
2019-04-14 12:00:00 17.3 4 Noroeste 15 Sudoeste 0 -- -- 52
2019-04-14 11:00:00 14.4 4 Norte 9 Norte 0 -- -- 53
2019-04-14 10:00:00 12.4 3 Norte 10 Noroeste 0 -- -- 55
2019-04-14 09:00:00 11.8 0 Calma -- -- 0 -- -- 61
2019-04-14 08:00:00 10.1 0 Calma 10 Sudoeste 0 -- -- 58
2019-04-14 07:00:00 10.9 8 Sudoeste 17 Sudoeste 0 -- -- 50
2019-04-14 06:00:00 10.3 8 Sudoeste 18 Sudoeste 0 -- -- 48
2019-04-14 05:00:00 10 5 Este 9 Este 0 -- -- 47
2019-04-14 04:00:00 9.6 4 Sudeste 10 Sudoeste 0 -- -- 47
2019-04-14 03:00:00 11.3 7 Sudoeste 10 Sudoeste 0 -- -- 44
2019-04-14 02:00:00 10.6 3 Sudeste 10 Sudeste 0 -- -- 45
2019-04-14 01:00:00 10.7 0 Calma 12 Oeste 0 -- -- 45
2019-04-14 00:00:00 11.7 8 Sudoeste 17 Sudoeste 0 -- -- 43
2019-04-13 23:00:00 12.6 11 Sudoeste 28 Sudoeste 0 -- -- 41
2019-04-13 22:00:00 13.5 15 Sudoeste 30 Sudoeste 0 -- -- 39
2019-04-13 21:00:00 14.3 15 Sudoeste 24 Sudoeste 0 -- -- 39
2019-04-13 20:00:00 15.7 15 Sudoeste 26 Sudoeste 0 -- -- 36
2019-04-13 19:00:00 18.5 11 Oeste 26 Sudoeste 0 -- -- 29
2019-04-13 18:00:00 18.8 9 Noroeste 23 Norte 0 -- -- 28
2019-04-13 17:00:00 19.5 11 Noroeste 20 Noroeste 0 -- -- 26
2019-04-13 16:00:00 18.5 6 Noroeste 19 Noroeste 0 -- -- 28
2019-04-13 15:00:00 17.6 6 Noroeste 19 Noroeste 0 -- -- 29
2019-04-13 14:00:00 17 9 Noroeste 23 Norte 0 -- -- 31
2019-04-13 13:00:00 16.4 0 Calma 17 Noroeste 0 -- -- 33
2019-04-13 12:00:00 15.1 6 Noroeste 15 Norte 0 -- -- 34
2019-04-13 11:00:00 14.3 0 Calma 11 Nordeste 0 -- -- 35
2019-04-13 10:00:00 13.4 4 Nordeste 9 Este 0 -- -- 36
2019-04-13 09:00:00 11.2 0 Calma 6 Sudeste 0 -- -- 39
2019-04-13 08:00:00 6.6 5 Sudeste 10 Sudeste 0 -- -- 43
2019-04-13 07:00:00 6.7 5 Sur 11 Sudeste 0 -- -- 43
2019-04-13 06:00:00 6.6 8 Sur 11 Sudeste 0 -- -- 43
2019-04-13 05:00:00 7.2 0 Calma 6 Sudoeste 0 -- -- 42
2019-04-13 04:00:00 7.5 0 Calma 10 Sudeste 0 -- -- 42
2019-04-13 03:00:00 7 6 Sudeste 8 Sudeste 0 -- -- 44
2019-04-13 02:00:00 8 3 Sudeste 5 Sudeste 0 -- -- 43
2019-04-13 01:00:00 8.2 3 Sur 10 Sudoeste 0 -- -- 43
2019-04-13 00:00:00 8.9 6 Sudoeste 10 Oeste 0 -- -- 44
2019-04-12 23:00:00 8.8 4 Oeste 9 Oeste 0 -- -- 42
2019-04-12 22:00:00 9.8 6 Sudoeste 10 Oeste 0 -- -- 37
2019-04-12 21:00:00 11 7 Sudoeste 15 Noroeste 0 -- -- 34
2019-04-12 20:00:00 14.7 8 Noroeste 18 Noroeste 0 -- -- 28
2019-04-12 19:00:00 15.1 6 Noroeste 20 Noroeste 0 -- -- 26
2019-04-12 18:00:00 15.3 9 Norte 25 Noroeste 0 -- -- 27
2019-04-12 17:00:00 15.5 5 Noroeste 21 Norte 0 -- -- 27
2019-04-12 16:00:00 15 12 Norte 25 Noroeste 0 -- -- 30
2019-04-12 15:00:00 14.4 12 Norte 27 Noroeste 0 -- -- 33
2019-04-12 14:00:00 12.9 13 Noroeste 23 Noroeste 0 -- -- 34
2019-04-12 13:00:00 12.1 11 Norte 27 Nordeste 0 -- -- 36
2019-04-12 12:00:00 11.5 14 Norte 31 Norte 0 -- -- 39
2019-04-12 11:00:00 9.8 8 Nordeste 15 Nordeste 0 -- -- 41
2019-04-12 10:00:00 10.3 3 Norte 6 Noroeste 0 -- -- 44
2019-04-12 09:00:00 6.9 0 Calma 3 Sudoeste 0 -- -- 51
2019-04-12 08:00:00 4.8 0 Calma -- -- 0 -- -- 52
2019-04-12 07:00:00 5.2 0 Calma 5 Sudeste 0 -- -- 51
2019-04-12 06:00:00 5 3 Sudeste 9 Sur 0 -- -- 52
2019-04-12 05:00:00 4.4 5 Sur 7 Sur 0 -- -- 53
2019-04-12 04:00:00 5.3 0 Calma 7 Este 0 -- -- 49
2019-04-12 03:00:00 5.5 0 Calma 6 Sudoeste 0 -- -- 49
2019-04-12 02:00:00 5.5 4 Sudoeste 9 Sudoeste 0 -- -- 49
2019-04-12 01:00:00 5.5 5 Sudoeste 12 Oeste 0 -- -- 48
2019-04-12 00:00:00 6.3 0 Calma 8 Sudoeste 0 -- -- 45
2019-04-11 23:00:00 6.8 0 Calma 10 Oeste 0 -- -- 44
2019-04-11 22:00:00 7.3 4 Sudoeste 11 Oeste 0 -- -- 41
2019-04-11 21:00:00 8.2 5 Sudoeste 10 Noroeste 0 -- -- 38
2019-04-11 20:00:00 10.9 4 Norte 23 Nordeste 0 -- -- 33
2019-04-11 19:00:00 13.8 8 Noroeste 19 Norte 0 -- -- 29
2019-04-11 18:00:00 13.7 10 Noroeste 24 Norte 0 -- -- 30
2019-04-11 17:00:00 12.3 7 Norte 26 Norte 0 -- -- 33
2019-04-11 16:00:00 12.8 7 Norte 24 Norte 0 -- -- 36
2019-04-11 15:00:00 12 11 Nordeste 20 Noroeste 0 -- -- 38
2019-04-11 14:00:00 10.8 8 Oeste 21 Noroeste 0 -- -- 40
2019-04-11 13:00:00 10.3 10 Norte 33 Norte 0 -- -- 43
2019-04-11 12:00:00 8.9 11 Norte 20 Norte 0 -- -- 48
2019-04-11 11:00:00 8.3 5 Norte 16 Norte 0 -- -- 52
2019-04-11 10:00:00 7.5 7 Nordeste 14 Nordeste 0 -- -- 57
2019-04-11 09:00:00 5.2 2 Sudoeste 7 Oeste 0 -- -- 75
2019-04-11 08:00:00 2.9 5 Sudoeste 9 Sudoeste 0 -- -- 82
2019-04-11 07:00:00 2.4 5 Sudoeste 10 Oeste 0 -- -- 81
2019-04-11 06:00:00 3.1 7 Sudoeste 10 Sudoeste 0 -- -- 79
2019-04-11 05:00:00 3.2 6 Oeste 9 Oeste 0 -- -- 77
2019-04-11 04:00:00 4.4 0 Calma 9 Nordeste 0 -- -- 74
2019-04-11 03:00:00 4.3 4 Este 8 Este 0 -- -- 75
2019-04-11 02:00:00 4.1 0 Calma 8 Sudoeste 0 -- -- 76
2019-04-11 01:00:00 4 5 Sudoeste 11 Oeste 0.1 -- -- 77
2019-04-11 00:00:00 4.2 4 Sudoeste 12 Sudoeste 0 -- -- 76
2019-04-10 23:00:00 5 6 Sudoeste 15 Oeste 0 -- -- 75
2019-04-10 22:00:00 5.2 8 Oeste 18 Oeste 0 -- -- 77
2019-04-10 21:00:00 5.2 9 Oeste 18 Oeste 0 -- -- 78
2019-04-10 20:00:00 5.5 11 Sudoeste 18 Sudoeste 0.1 -- -- 80
2019-04-10 19:00:00 5.7 9 Sudoeste 24 Nordeste 2.3 -- -- 80
2019-04-10 18:00:00 7 4 Este 38 Oeste 0 -- -- 61
2019-04-10 17:00:00 12.7 18 Oeste 32 Oeste 0 -- -- 41
2019-04-10 16:00:00 11.3 17 Noroeste 32 Noroeste 0 -- -- 39
2019-04-10 15:00:00 10.6 15 Oeste 28 Noroeste 0 -- -- 41
2019-04-10 14:00:00 10.4 13 Oeste 26 Noroeste 0 -- -- 43
2019-04-10 13:00:00 10.4 7 Noroeste 25 Oeste 0 -- -- 46
2019-04-10 12:00:00 8.9 12 Oeste 24 Noroeste 0 -- -- 48
2019-04-10 11:00:00 8.8 13 Noroeste 23 Noroeste 0 -- -- 50
2019-04-10 10:00:00 7 9 Noroeste 21 Noroeste 0 -- -- 53
2019-04-10 09:00:00 5.9 11 Oeste 18 Oeste 0 -- -- 61
2019-04-10 08:00:00 3.7 9 Oeste 29 Oeste 0 -- -- 68
2019-04-10 07:00:00 4 11 Oeste 23 Oeste 0 -- -- 68
2019-04-10 06:00:00 3.9 2 Sur 17 Sudoeste 0 -- -- 68
2019-04-10 05:00:00 3.8 0 Calma 26 Oeste 0 -- -- 67
2019-04-10 04:00:00 5.1 10 Oeste 41 Sudoeste 0 -- -- 64
2019-04-10 03:00:00 6 19 Oeste 42 Sudoeste 0 -- -- 62
2019-04-10 02:00:00 6.7 22 Oeste 42 Sudoeste 0 -- -- 58
2019-04-10 01:00:00 6.4 18 Oeste 39 Oeste 0 -- -- 59
2019-04-10 00:00:00 6.9 19 Sudoeste 35 Oeste 0 -- -- 59
2019-04-09 23:00:00 7.4 18 Oeste 33 Oeste 0 -- -- 58
2019-04-09 22:00:00 7.7 14 Oeste 30 Sudoeste 0 -- -- 55
2019-04-09 21:00:00 7.4 8 Oeste 30 Oeste 0 -- -- 53
2019-04-09 20:00:00 9.8 15 Oeste 37 Sudoeste 0 -- -- 45
2019-04-09 19:00:00 10.6 22 Oeste 42 Oeste 0 -- -- 45
2019-04-09 18:00:00 10.6 19 Oeste 44 Oeste 0 -- -- 47
2019-04-09 17:00:00 9.7 23 Oeste 46 Sudoeste 0 -- -- 54
2019-04-09 16:00:00 9.4 22 Oeste 57 Oeste 0.5 -- -- 61
2019-04-09 15:00:00 7.5 14 Sudoeste 31 Oeste 0.1 -- -- 68
2019-04-09 14:00:00 6.9 13 Oeste 42 Oeste 0.2 -- -- 74
2019-04-09 13:00:00 6.1 17 Sudoeste 50 Sudoeste 1.1 -- -- 80
2019-04-09 12:00:00 6.2 22 Sudoeste 42 Oeste 0.1 -- -- 72
2019-04-09 11:00:00 5 18 Sudoeste 36 Sudoeste 0.2 -- -- 79
2019-04-09 10:00:00 5.1 14 Sudoeste 34 Sudoeste 0 -- -- 75
2019-04-09 09:00:00 5.2 15 Sudoeste 40 Sudoeste 0 -- -- 77
2019-04-09 08:00:00 4.5 17 Sudoeste 42 Sudoeste 0.3 -- -- 77
2019-04-09 07:00:00 4.7 18 Sudoeste 33 Sudoeste 0.1 -- -- 78
2019-04-09 06:00:00 5 15 Sudoeste 29 Sudoeste 0 -- -- 75
2019-04-09 05:00:00 5.1 14 Sudoeste 37 Sudoeste 0 -- -- 70
2019-04-09 04:00:00 4.9 15 Sudoeste 35 Sudoeste 0 -- -- 69
2019-04-09 03:00:00 5.4 13 Oeste 33 Sudoeste 0 -- -- 66
2019-04-09 02:00:00 5.6 17 Sudoeste 27 Sudoeste 0 -- -- 66
2019-04-09 01:00:00 6.6 10 Sudoeste 31 Sudoeste 0 -- -- 60
2019-04-09 00:00:00 6.9 8 Sudoeste 23 Noroeste 0 -- -- 53
2019-04-08 23:00:00 8.2 9 Oeste 28 Sudoeste 0 -- -- 49
2019-04-08 22:00:00 8.8 8 Oeste 42 Sudoeste 0 -- -- 46
2019-04-08 21:00:00 9.1 16 Sudoeste 32 Sudoeste 0 -- -- 45
2019-04-08 20:00:00 9.5 18 Sudoeste 34 Oeste 0 -- -- 41
2019-04-08 19:00:00 11.8 22 Sudoeste 50 Oeste 0 -- -- 37
2019-04-08 18:00:00 11.6 28 Sudoeste 49 Sudoeste 0 -- -- 40
2019-04-08 17:00:00 11.8 23 Sudoeste 51 Sudoeste 0 -- -- 45
2019-04-08 16:00:00 12.9 13 Oeste 45 Sudoeste 0 -- -- 44
2019-04-08 15:00:00 12.1 22 Sudoeste 41 Sudoeste 0.1 -- -- 47
2019-04-08 14:00:00 11.2 16 Sudoeste 45 Sudoeste 0 -- -- 53
2019-04-08 13:00:00 10 20 Sudoeste 44 Sudoeste 0.1 -- -- 61
2019-04-08 12:00:00 9.4 17 Sudoeste 33 Sudoeste 0.1 -- -- 68
2019-04-08 11:00:00 8.1 9 Sudoeste 37 Sudoeste 0.3 -- -- 83
2019-04-08 10:00:00 7.6 19 Sudoeste 36 Sudoeste 0.4 -- -- 85
2019-04-08 09:00:00 7 15 Sur 50 Sur 0.1 -- -- 85
2019-04-08 08:00:00 6.9 21 Sur 49 Sur 0.5 -- -- 83
2019-04-08 07:00:00 7 26 Sudoeste 55 Sudoeste 0.5 -- -- 82
2019-04-08 06:00:00 7 26 Sudoeste 59 Sudoeste 0.5 -- -- 81
2019-04-08 05:00:00 7.7 32 Sudoeste 56 Sudoeste 0.4 -- -- 81
2019-04-08 04:00:00 7.8 13 Sudoeste 34 Sudoeste 2.2 -- -- 84
2019-04-08 03:00:00 7.5 13 Sudoeste 33 Sudoeste 0 -- -- 81
2019-04-08 02:00:00 7.5 18 Sudoeste 43 Sudoeste 0.1 -- -- 79
2019-04-08 01:00:00 7.7 22 Sudoeste 37 Sudoeste 0.3 -- -- 85
2019-04-08 00:00:00 6.8 12 Sur 20 Sur 0.5 -- -- 87
2019-04-07 23:00:00 6.7 16 Sur 30 Sur 0.3 -- -- 87
2019-04-07 22:00:00 6.5 17 Sur 37 Sur 0.3 -- -- 87
2019-04-07 21:00:00 6.2 14 Sur 25 Sur 0.4 -- -- 86
2019-04-07 20:00:00 6.6 11 Sur 32 Sudoeste 0 -- -- 82
2019-04-07 19:00:00 6.8 6 Sudoeste 26 Sudoeste 0 -- -- 75
2019-04-07 18:00:00 6.1 17 Sudoeste 32 Sudoeste 0.1 -- -- 79
2019-04-07 17:00:00 7.1 17 Sudoeste 35 Sudoeste 0 -- -- 73
2019-04-07 16:00:00 7.5 15 Sudoeste 34 Sudoeste 0 -- -- 59
2019-04-07 15:00:00 7.9 18 Sudoeste 31 Sudoeste 0 -- -- 58
2019-04-07 14:00:00 7.9 14 Sudoeste 33 Sudoeste 0 -- -- 54
2019-04-07 13:00:00 7.5 13 Sudoeste 30 Sudoeste 0 -- -- 57
2019-04-07 12:00:00 7.8 14 Sudoeste 27 Oeste 0 -- -- 55
2019-04-07 11:00:00 5.8 17 Oeste 33 Sudoeste 0 -- -- 61
2019-04-07 10:00:00 5.7 10 Oeste 31 Oeste 0 -- -- 63
2019-04-07 09:00:00 4.6 14 Oeste 34 Sudoeste 0 -- -- 69
2019-04-07 08:00:00 4.2 18 Oeste 37 Oeste 0 -- -- 68
2019-04-07 07:00:00 4.1 15 Oeste 41 Oeste 0 -- -- 67
2019-04-07 06:00:00 4.1 22 Oeste 47 Sudoeste 0 -- -- 69
2019-04-07 05:00:00 3.7 20 Oeste 53 Sudoeste 0 -- -- 76
2019-04-07 04:00:00 4 29 Sudoeste 51 Sudoeste 0 -- -- 73
2019-04-07 03:00:00 3.1 24 Sudoeste 48 Sudoeste 0 -- -- 82
2019-04-07 02:00:00 3.5 31 Sudoeste 51 Sudoeste 0 -- -- 74
2019-04-07 01:00:00 3.8 27 Sudoeste 55 Sudoeste 0.1 -- -- 68
2019-04-07 00:00:00 4.2 27 Sudoeste 56 Sudoeste 0 -- -- 65
2019-04-06 23:00:00 4 17 Sudoeste 48 Sudoeste 0 -- -- 64
2019-04-06 22:00:00 4.1 20 Oeste 58 Sudoeste 0.1 -- -- 62
2019-04-06 21:00:00 4.4 24 Oeste 61 Oeste 0 -- -- 59
2019-04-06 20:00:00 4.4 30 Sudoeste 47 Oeste 0 -- -- 58
2019-04-06 19:00:00 4.3 25 Oeste 46 Sudoeste 0 -- -- 63
2019-04-06 18:00:00 4.7 28 Sudoeste 51 Sudoeste 0.1 -- -- 62
2019-04-06 17:00:00 5.1 26 Sudoeste 51 Sudoeste 0 -- -- 60
2019-04-06 16:00:00 6.1 27 Sudoeste 54 Sudoeste 0.1 -- -- 57
2019-04-06 15:00:00 5.3 20 Oeste 49 Sudoeste 0.2 -- -- 60
2019-04-06 14:00:00 5.5 15 Oeste 49 Sudoeste 0 -- -- 70
2019-04-06 13:00:00 4.2 18 Sudoeste 48 Sudoeste 0 -- -- 73
2019-04-06 12:00:00 4.1 27 Sudoeste 59 Sudoeste 1.9 -- -- 80
2019-04-06 11:00:00 3.4 28 Sudoeste 61 Sudoeste 0.1 -- -- 77
2019-04-06 10:00:00 3.3 33 Sudoeste 54 Sudoeste 0.4 -- -- 83
2019-04-06 09:00:00 2.8 21 Sudoeste 40 Sudoeste 0.8 -- -- 85
2019-04-06 08:00:00 2.7 15 Sudoeste 48 Sudoeste 0.1 -- -- 80
2019-04-06 07:00:00 2.4 19 Sudoeste 44 Sudoeste 0 -- -- 78
2019-04-06 06:00:00 2.6 14 Sudoeste 42 Sudoeste 0 -- -- 78
2019-04-06 05:00:00 2.4 18 Sudoeste 48 Sudoeste 0 -- -- 78
2019-04-06 04:00:00 2.2 25 Sudoeste 42 Sudoeste 0.1 -- -- 78
2019-04-06 03:00:00 2.1 18 Sudoeste 44 Sudoeste 0.1 -- -- 78
2019-04-06 02:00:00 2.5 8 Sudoeste 31 Oeste 0.3 -- -- 81
2019-04-06 01:00:00 2.6 19 Sudoeste 37 Sudoeste 0.2 -- -- 81
2019-04-06 00:00:00 2.7 19 Sudoeste 38 Sudoeste 0 -- -- 83
2019-04-05 23:00:00 2.3 27 Sudoeste 45 Sudoeste 0.1 -- -- 82
2019-04-05 22:00:00 2.3 18 Sudoeste 43 Sudoeste 0.5 -- -- 75
2019-04-05 21:00:00 3.6 21 Sudoeste 42 Sudoeste 0.1 -- -- 65
2019-04-05 20:00:00 3.5 25 Sudoeste 48 Sudoeste 0 -- -- 64
2019-04-05 19:00:00 3.6 26 Sudoeste 45 Sudoeste 0.1 -- -- 69
2019-04-05 18:00:00 4.2 17 Sudoeste 46 Sudoeste 0.8 -- -- 70
2019-04-05 17:00:00 4.1 29 Sudoeste 48 Sudoeste 0.1 -- -- 61
2019-04-05 16:00:00 5.1 24 Sudoeste 43 Sudoeste 0.4 -- -- 69
2019-04-05 15:00:00 5.7 16 Sudoeste 38 Sudoeste 0.1 -- -- 77
2019-04-05 14:00:00 4.2 23 Sudoeste 49 Sudoeste 1 -- -- 83
2019-04-05 13:00:00 3.7 9 Sudoeste 28 Sur 1.5 -- -- 81
2019-04-05 12:00:00 4.6 13 Sur 32 Sudoeste 1.2 -- -- 83
2019-04-05 11:00:00 3.7 16 Sur 35 Sur 1.9 -- -- 86
2019-04-05 10:00:00 3.4 17 Sur 29 Sudeste 2.1 -- -- 88
2019-04-05 09:00:00 2.9 14 Sur 33 Sur 1 -- -- 88
2019-04-05 08:00:00 2.8 23 Sur 42 Sudoeste 1.3 -- -- 87
2019-04-05 07:00:00 2.6 26 Sudoeste 46 Sudoeste 2.9 -- -- 85
2019-04-05 06:00:00 3.4 27 Sudoeste 54 Sur 1.2 -- -- 86
2019-04-05 05:00:00 3.4 36 Sudoeste 57 Sur 0 -- -- 82
2019-04-05 04:00:00 3.5 14 Sur 39 Sur 0 -- -- 74
2019-04-05 03:00:00 4.5 8 Sudoeste 35 Oeste 0 -- -- 61
2019-04-05 02:00:00 6.4 17 Sudoeste 36 Sudoeste 0 -- -- 43
2019-04-05 01:00:00 6.9 14 Sudoeste 34 Sudoeste 0 -- -- 37
2019-04-05 00:00:00 7.6 20 Sudoeste 40 Sudoeste 0 -- -- 34
2019-04-04 23:00:00 7.6 17 Oeste 31 Sudoeste 0 -- -- 34
2019-04-04 22:00:00 7.7 14 Sudoeste 39 Sudoeste 0 -- -- 33
2019-04-04 21:00:00 8.3 13 Sudoeste 32 Oeste 0 -- -- 33
2019-04-04 20:00:00 10.5 17 Sudoeste 36 Sudoeste 0 -- -- 31
2019-04-04 19:00:00 12.1 15 Sudoeste 35 Sudoeste 0 -- -- 29
2019-04-04 18:00:00 12.4 15 Sudoeste 32 Oeste 0 -- -- 29
2019-04-04 17:00:00 12.5 14 Sudoeste 32 Oeste 0 -- -- 29
2019-04-04 16:00:00 11.7 9 Sudoeste 28 Sudoeste 0 -- -- 31
2019-04-04 15:00:00 10.8 12 Sudoeste 36 Sudoeste 0 -- -- 33
2019-04-04 14:00:00 10.3 8 Oeste 23 Sudoeste 0 -- -- 34
2019-04-04 13:00:00 8.8 7 Este 15 Nordeste 0 -- -- 34
2019-04-04 12:00:00 7.4 5 Sudeste 15 Este 0 -- -- 38
2019-04-04 11:00:00 5.8 0 Calma 13 Noroeste 0 -- -- 40
2019-04-04 10:00:00 3.5 6 Norte 12 Este 0 -- -- 46
2019-04-04 09:00:00 2.3 2 Sudeste 10 Sudeste 0 -- -- 52
2019-04-04 08:00:00 -0.7 5 Sudeste 11 Sudeste 0 -- -- 55
2019-04-04 07:00:00 -0.1 4 Este 11 Este 0 -- -- 53
2019-04-04 06:00:00 0 2 Sudoeste 21 Este 0 -- -- 51
2019-04-04 05:00:00 0.1 4 Este 15 Nordeste 0 -- -- 50
2019-04-04 04:00:00 1.4 0 Calma 15 Nordeste 0 -- -- 47
2019-04-04 03:00:00 2.5 5 Nordeste 17 Nordeste 0 -- -- 45
2019-04-04 02:00:00 3.2 6 Nordeste 16 Nordeste 0 -- -- 45
2019-04-04 01:00:00 4.1 4 Nordeste 17 Norte 0 -- -- 45
2019-04-04 00:00:00 4.3 5 Este 12 Este 0 -- -- 47
2019-04-03 23:00:00 5.5 4 Este 11 Este 0 -- -- 43
2019-04-03 22:00:00 6.1 6 Sudeste 9 Este 0 -- -- 42
2019-04-03 21:00:00 8.7 0 Calma 20 Noroeste 0.1 -- -- 38
2019-04-03 20:00:00 12.5 10 Noroeste 30 Oeste 0 -- -- 32
2019-04-03 19:00:00 14.4 15 Sudoeste 31 Oeste 0 -- -- 37
2019-04-03 18:00:00 14.7 16 Oeste 32 Sudoeste 0 -- -- 37
2019-04-03 17:00:00 14.3 17 Sudoeste 33 Sudoeste 0 -- -- 38
2019-04-03 16:00:00 14.6 17 Sudoeste 37 Sudoeste 0 -- -- 36
2019-04-03 15:00:00 14.1 21 Oeste 44 Sudoeste 0 -- -- 34
2019-04-03 14:00:00 13.7 20 Oeste 40 Sudoeste 0 -- -- 37
2019-04-03 13:00:00 12.8 18 Sudoeste 40 Sudoeste 0.1 -- -- 40
2019-04-03 12:00:00 11.8 19 Sudoeste 40 Sur 0 -- -- 43
2019-04-03 11:00:00 10.5 23 Sudoeste 40 Sudoeste 0 -- -- 43
2019-04-03 10:00:00 8.7 24 Sudoeste 42 Sudoeste 0 -- -- 56
2019-04-03 09:00:00 8.1 15 Sudoeste 34 Sudoeste 0.1 -- -- 63
2019-04-03 08:00:00 8 13 Sudoeste 28 Sudoeste 0 -- -- 60
2019-04-03 07:00:00 8.6 16 Sudoeste 32 Sudoeste 0 -- -- 57
2019-04-03 06:00:00 8.5 16 Sur 24 Sur 0 -- -- 62
2019-04-03 05:00:00 9.5 8 Sudoeste 20 Sudoeste 0 -- -- 57
2019-04-03 04:00:00 10 13 Sudoeste 26 Sudoeste 0.1 -- -- 55
2019-04-03 03:00:00 8.4 4 Oeste 23 Sudoeste 0 -- -- 61
2019-04-03 02:00:00 10.1 17 Sudoeste 30 Sudoeste 0 -- -- 57
2019-04-03 01:00:00 10.7 19 Sudoeste 37 Sudoeste 0 -- -- 55
2019-04-03 00:00:00 11.1 22 Sudoeste 40 Sudoeste 0 -- -- 55
2019-04-02 23:00:00 10.9 18 Sudoeste 35 Sudoeste 0 -- -- 55
2019-04-02 22:00:00 11.1 13 Sudoeste 32 Sudoeste 0 -- -- 56
2019-04-02 21:00:00 11.3 21 Sudoeste 37 Sudoeste 0 -- -- 55
2019-04-02 20:00:00 12.2 18 Sudoeste 32 Sudoeste 0 -- -- 55
2019-04-02 19:00:00 12.2 4 Nordeste 24 Oeste 0 -- -- 60
2019-04-02 18:00:00 13.9 4 Este 24 Noroeste 0.2 -- -- 58
2019-04-02 17:00:00 12.7 3 Oeste 14 Este 0 -- -- 59
2019-04-02 16:00:00 12.5 6 Este 12 Este 0 -- -- 66
2019-04-02 15:00:00 11.6 0 Calma 8 Noroeste 0.5 -- -- 72
2019-04-02 14:00:00 10.7 3 Sudoeste 22 Sudoeste 1 -- -- 74
2019-04-02 13:00:00 13.2 11 Sur 22 Sur 0.1 -- -- 63
2019-04-02 12:00:00 9 13 Sur 25 Sudoeste 1.7 -- -- 74
2019-04-02 11:00:00 12.6 2 Norte 9 Noroeste 0 -- -- 51
2019-04-02 10:00:00 10.6 3 Nordeste 7 Sur 0 -- -- 58
2019-04-02 09:00:00 7.9 5 Sur 7 Sur 0 -- -- 69
2019-04-02 08:00:00 7.4 0 Calma 4 Este 0 -- -- 68
2019-04-02 07:00:00 6.6 0 Calma 9 Sudoeste 0 -- -- 68
2019-04-02 06:00:00 7.7 6 Sudoeste 28 Sudoeste 0 -- -- 64
2019-04-02 05:00:00 8.9 21 Sudoeste 30 Sudoeste 0 -- -- 66
2019-04-02 04:00:00 9.4 19 Sudoeste 24 Sudoeste 0 -- -- 61
2019-04-02 03:00:00 9.3 17 Sudoeste 33 Sudoeste 0 -- -- 62
2019-04-02 02:00:00 8.6 22 Sudoeste 33 Sudoeste 0 -- -- 65
2019-04-02 01:00:00 9.1 19 Sudoeste 28 Sudoeste 0 -- -- 61
2019-04-02 00:00:00 9.2 17 Sudoeste 28 Sudoeste 0 -- -- 58
2019-04-01 23:00:00 8.5 18 Sudoeste 27 Sur 0 -- -- 62
2019-04-01 22:00:00 8.8 10 Sudoeste 25 Sudoeste 0 -- -- 60
2019-04-01 21:00:00 9.7 6 Sur 8 Sur 0 -- -- 55
2019-04-01 20:00:00 11.3 4 Sudeste 7 Sudeste 0 -- -- 54
2019-04-01 19:00:00 11.6 3 Este 12 Este 0 -- -- 52
2019-04-01 18:00:00 11.5 9 Nordeste 21 Sur 0 -- -- 57
2019-04-01 17:00:00 11.4 8 Sur 14 Sur 0 -- -- 57
2019-04-01 16:00:00 12.6 2 Oeste 10 Este 0 -- -- 49
2019-04-01 15:00:00 11.7 5 Sudeste 9 Este 0 -- -- 51
2019-04-01 14:00:00 11.6 4 Norte 9 Noroeste 0 -- -- 52
2019-04-01 13:00:00 11.8 3 Este 18 Norte 0 -- -- 53
2019-04-01 12:00:00 11.8 4 Nordeste 13 Este 0 -- -- 49
2019-04-01 11:00:00 10.3 2 Nordeste 9 Nordeste 0 -- -- 67
2019-04-01 10:00:00 7.5 3 Noroeste 8 Sur 0 -- -- 87
2019-04-01 09:00:00 6.5 4 Sudeste 7 Sudeste 0 -- -- 88
2019-04-01 08:00:00 6.6 0 Calma -- -- 0 -- -- 85
2019-04-01 07:00:00 6.3 0 Calma 6 Oeste 0 -- -- 86
2019-04-01 06:00:00 6.1 5 Oeste 6 Oeste 0 -- -- 85
2019-04-01 05:00:00 6.3 3 Noroeste 6 Noroeste 0 -- -- 85
2019-04-01 04:00:00 6.5 0 Calma 4 Sudoeste 0 -- -- 86
2019-04-01 03:00:00 6 0 Calma 4 Sudeste 0 -- -- 87
2019-04-01 02:00:00 5 4 Sudeste 7 Sudeste 0 -- -- 86
2019-04-01 01:00:00 5.5 0 Calma 6 Sur 0 -- -- 84
2019-04-01 00:00:00 6 3 Sudeste 10 Este 0 -- -- 84
2019-03-31 23:00:00 6.9 0 Calma 14 Este 0 -- -- 86
2019-03-31 22:00:00 7 6 Este 17 Este 0 -- -- 85
2019-03-31 21:00:00 7.5 5 Este 22 Este 0 -- -- 75
2019-03-31 20:00:00 8 9 Este 18 Este 0 -- -- 74
2019-03-31 19:00:00 8.4 5 Este 13 Este 0 -- -- 71
2019-03-31 18:00:00 8.1 6 Este 22 Este 0 -- -- 72
2019-03-31 17:00:00 8.4 10 Este 19 Este 0 -- -- 73
2019-03-31 16:00:00 7.3 6 Este 13 Este 0 -- -- 75
2019-03-31 15:00:00 8.2 7 Nordeste 15 Este 0 -- -- 70
2019-03-31 14:00:00 8.6 4 Este 15 Nordeste 0 -- -- 69
2019-03-31 13:00:00 8.9 8 Nordeste 16 Este 0 -- -- 67
2019-03-31 12:00:00 8.1 7 Este 22 Este 0 -- -- 70
2019-03-31 11:00:00 7.7 5 Nordeste 10 Nordeste 0 -- -- 70
2019-03-31 10:00:00 5.5 5 Sur 9 Sudoeste 0 -- -- 78
2019-03-31 09:00:00 4.7 4 Oeste 9 Oeste 0 -- -- 79
2019-03-31 08:00:00 4.8 0 Calma 6 Sudoeste 0 -- -- 74
2019-03-31 07:00:00 5.6 3 Oeste 9 Oeste 0 -- -- 71
2019-03-31 06:00:00 7.2 6 Noroeste 10 Noroeste 0 -- -- 66
2019-03-31 05:00:00 8.5 3 Norte 9 Norte 0 -- -- 59
2019-03-31 03:00:00 9.4 2 Oeste 17 Sur 0 -- -- 53
2019-03-31 01:00:00 9.9 8 Sur 14 Sur 0 -- -- 50
2019-03-31 00:00:00 9.6 3 Sur 10 Nordeste 0 -- -- 49
2019-03-30 23:00:00 10.6 3 Sur 13 Sudoeste 0 -- -- 46
2019-03-30 22:00:00 11.2 4 Este 19 Este 0 -- -- 44
2019-03-30 21:00:00 11.4 6 Sudeste 14 Este 0 -- -- 42
2019-03-30 20:00:00 10.6 5 Sudeste 13 Este 0 -- -- 40
2019-03-30 19:00:00 14 5 Este 14 Este 0 -- -- 37
2019-03-30 18:00:00 15.2 4 Sudeste 16 Sudeste 0 -- -- 34
2019-03-30 17:00:00 14.6 7 Este 27 Este 0 -- -- 36
2019-03-30 16:00:00 16.9 9 Norte 27 Nordeste 0 -- -- 34
2019-03-30 15:00:00 16 9 Nordeste 21 Noroeste 0 -- -- 37
2019-03-30 14:00:00 14.3 7 Noroeste 17 Noroeste 0 -- -- 42
2019-03-30 13:00:00 12.6 6 Norte 17 Noroeste 0 -- -- 46
2019-03-30 12:00:00 10.1 5 Nordeste 11 Norte 0 -- -- 50
2019-03-30 11:00:00 6.9 3 Nordeste 9 Nordeste 0 -- -- 60
2019-03-30 10:00:00 5.8 3 Noroeste 8 Norte 0 -- -- 61
2019-03-30 09:00:00 6.3 3 Noroeste 7 Norte 0 -- -- 59
2019-03-30 08:00:00 4.2 0 Calma 5 Sudoeste 0 -- -- 66
2019-03-30 07:00:00 1.4 4 Sudoeste 8 Sudoeste 0 -- -- 63
2019-03-30 06:00:00 3 6 Sudoeste 11 Sudoeste 0 -- -- 51
2019-03-30 05:00:00 4.1 8 Sudoeste 15 Nordeste 0 -- -- 45
2019-03-30 04:00:00 7.9 5 Sur 17 Sur 0 -- -- 38
2019-03-30 03:00:00 7.9 13 Sur 21 Sur 0 -- -- 42
2019-03-30 02:00:00 7.5 13 Sur 19 Sur 0 -- -- 42
2019-03-30 01:00:00 6 0 Calma 9 Este 0 -- -- 41
2019-03-30 00:00:00 5.9 6 Sudeste 10 Sudeste 0 -- -- 38
2019-03-29 23:00:00 6.3 0 Calma 14 Este 0 -- -- 34
2019-03-29 22:00:00 7.3 8 Este 14 Este 0 -- -- 32
2019-03-29 21:00:00 9.2 10 Sur 14 Sur 0 -- -- 27
2019-03-29 20:00:00 10.1 10 Sur 15 Sur 0 -- -- 27
2019-03-29 19:00:00 13.1 6 Sudoeste 16 Sur 0 -- -- 26
2019-03-29 18:00:00 14.2 6 Sur 18 Sur 0 -- -- 25
2019-03-29 17:00:00 16.2 6 Sudoeste 21 Sudoeste 0 -- -- 24
2019-03-29 16:00:00 15.4 8 Sur 27 Este 0 -- -- 26
2019-03-29 15:00:00 15.5 9 Nordeste 23 Este 0 -- -- 28
2019-03-29 14:00:00 15 7 Este 18 Nordeste 0 -- -- 30
2019-03-29 13:00:00 14 7 Nordeste 19 Nordeste 0 -- -- 32
2019-03-29 12:00:00 12.5 2 Sudeste 15 Norte 0 -- -- 35
2019-03-29 11:00:00 10.8 9 Nordeste 20 Este 0 -- -- 38
2019-03-29 10:00:00 9.6 10 Nordeste 20 Este 0 -- -- 39
2019-03-29 09:00:00 7.8 0 Calma 7 Nordeste 0 -- -- 42
2019-03-29 08:00:00 3.6 3 Oeste 9 Oeste 0 -- -- 45
2019-03-29 07:00:00 2.9 6 Sudoeste 11 Oeste 0 -- -- 40
2019-03-29 06:00:00 6.1 3 Este 19 Este 0 -- -- 34
2019-03-29 05:00:00 6.9 7 Este 24 Sudeste 0 -- -- 34
2019-03-29 04:00:00 7.8 6 Sudeste 21 Este 0 -- -- 33
2019-03-29 03:00:00 6.9 2 Sur 16 Sudeste 0 -- -- 33
2019-03-29 02:00:00 5.8 0 Calma 8 Sudoeste 0 -- -- 34
2019-03-29 01:00:00 6.6 0 Calma 16 Sudoeste 0 -- -- 33
2019-03-29 00:00:00 8.7 9 Sur 23 Sur 0 -- -- 31
2019-03-28 23:00:00 9.7 5 Sur 16 Sudeste 0 -- -- 31
2019-03-28 22:00:00 10 5 Sudeste 14 Sudeste 0 -- -- 30
2019-03-28 21:00:00 9.6 4 Sudeste 10 Sudeste 0 -- -- 29
2019-03-28 20:00:00 10.8 5 Sudeste 22 Este 0 -- -- 27
2019-03-28 19:00:00 12.6 12 Este 26 Este 0 -- -- 26
2019-03-28 18:00:00 14.3 12 Este 32 Este 0 -- -- 24
2019-03-28 17:00:00 15.4 11 Este 27 Este 0 -- -- 24
2019-03-28 16:00:00 15.9 10 Este 27 Este 0 -- -- 24
2019-03-28 15:00:00 15.2 13 Este 30 Nordeste 0 -- -- 25
2019-03-28 14:00:00 15.8 12 Nordeste 26 Este 0 -- -- 25
2019-03-28 13:00:00 15.4 13 Nordeste 27 Sudeste 0 -- -- 25
2019-03-28 12:00:00 14.4 9 Sudeste 23 Este 0 -- -- 24
2019-03-28 11:00:00 14 9 Este 33 Sudeste 0 -- -- 24
2019-03-28 10:00:00 12 8 Sudeste 32 Sudeste 0 -- -- 23
2019-03-28 09:00:00 11.1 7 Este 31 Este 0 -- -- 21
2019-03-28 08:00:00 8.9 8 Este 26 Este 0 -- -- 24
2019-03-28 07:00:00 5.9 3 Nordeste 12 Sur 0 -- -- 33
2019-03-28 06:00:00 6.8 3 Nordeste 23 Sur 0 -- -- 33
2019-03-28 05:00:00 7.1 12 Sur 23 Sur 0 -- -- 35
2019-03-28 04:00:00 7 10 Sudoeste 18 Sudoeste 0 -- -- 35
2019-03-28 03:00:00 7.1 13 Sudoeste 19 Sur 0 -- -- 33
2019-03-28 02:00:00 7.7 2 Sudoeste 19 Sur 0 -- -- 32
2019-03-28 01:00:00 7.4 3 Nordeste 13 Sur 0 -- -- 33
2019-03-28 00:00:00 8.8 10 Sur 19 Sur 0 -- -- 30
2019-03-27 23:00:00 8.7 11 Sur 23 Sur 0 -- -- 31
2019-03-27 22:00:00 8.5 6 Sur 12 Sur 0 -- -- 33
2019-03-27 21:00:00 8.6 6 Sur 14 Sur 0 -- -- 32
2019-03-27 20:00:00 9.2 6 Sudeste 11 Este 0 -- -- 32
2019-03-27 19:00:00 11.9 8 Este 20 Este 0 -- -- 29
2019-03-27 18:00:00 13.7 11 Este 25 Este 0 -- -- 27
2019-03-27 17:00:00 14.4 10 Este 26 Este 0 -- -- 27
2019-03-27 16:00:00 14.7 10 Este 28 Este 0 -- -- 28
2019-03-27 15:00:00 13.9 10 Nordeste 23 Este 0 -- -- 29
2019-03-27 14:00:00 13.1 10 Este 28 Este 0 -- -- 33
2019-03-27 13:00:00 12.4 14 Este 30 Este 0 -- -- 34
2019-03-27 12:00:00 11.2 12 Este 23 Este 0 -- -- 38
2019-03-27 11:00:00 9.4 10 Este 23 Este 0 -- -- 44
2019-03-27 10:00:00 7.5 10 Este 22 Este 0 -- -- 52
2019-03-27 09:00:00 4.8 10 Este 20 Sudeste 0 -- -- 62
2019-03-27 08:00:00 3 4 Nordeste 17 Sudeste 0 -- -- 72
2019-03-27 07:00:00 1.8 9 Este 23 Este 0 -- -- 75
2019-03-27 06:00:00 1.3 4 Nordeste 14 Nordeste 0 -- -- 77
2019-03-27 05:00:00 2 8 Nordeste 16 Este 0 -- -- 75
2019-03-27 04:00:00 2.8 0 Calma 18 Este 0 -- -- 73
2019-03-27 03:00:00 4.2 4 Sudeste 17 Sudeste 0 -- -- 56
2019-03-27 02:00:00 7.3 3 Este 31 Este 0 -- -- 38
2019-03-27 01:00:00 8.6 8 Este 33 Este 0 -- -- 41
2019-03-27 00:00:00 9.1 8 Sudeste 26 Este 0 -- -- 44
2019-03-26 23:00:00 10 7 Este 26 Sudeste 0 -- -- 38
2019-03-26 22:00:00 10.9 12 Este 26 Sudeste 0 -- -- 38
2019-03-26 21:00:00 12 10 Sudeste 28 Este 0 -- -- 35
2019-03-26 20:00:00 12.7 11 Sudeste 30 Este 0 -- -- 34
2019-03-26 19:00:00 14.3 18 Este 37 Este 0 -- -- 32
2019-03-26 18:00:00 16.6 14 Este 35 Este 0 -- -- 29
2019-03-26 17:00:00 17.4 15 Este 35 Este 0 -- -- 29
2019-03-26 16:00:00 17.9 13 Nordeste 37 Este 0 -- -- 29
2019-03-26 15:00:00 17.3 20 Este 42 Sudeste 0 -- -- 31
2019-03-26 14:00:00 17 18 Este 39 Este 0 -- -- 33
2019-03-26 13:00:00 15.3 19 Este 39 Este 0 -- -- 36
2019-03-26 12:00:00 13.2 6 Nordeste 19 Nordeste 0 -- -- 40
2019-03-26 11:00:00 10.1 4 Noroeste 14 Norte 0 -- -- 45
2019-03-26 10:00:00 8.1 4 Este 12 Este 0 -- -- 48
2019-03-26 09:00:00 3.7 3 Noroeste 6 Noroeste 0 -- -- 56
2019-03-26 08:00:00 1 3 Sudoeste 6 Sudoeste 0 -- -- 63
2019-03-26 07:00:00 0 5 Sudoeste 10 Oeste 0 -- -- 62
2019-03-26 06:00:00 0 7 Oeste 12 Sudoeste 0 -- -- 57
2019-03-26 05:00:00 1.2 6 Oeste 9 Oeste 0 -- -- 51
2019-03-26 04:00:00 3.1 0 Calma 9 Oeste 0 -- -- 46
2019-03-26 03:00:00 3.8 5 Oeste 10 Oeste 0 -- -- 42
2019-03-26 02:00:00 5.5 5 Oeste 12 Oeste 0 -- -- 38
2019-03-26 01:00:00 8 0 Calma 15 Nordeste 0 -- -- 34
2019-03-26 00:00:00 9.6 4 Sudeste 14 Este 0 -- -- 32
2019-03-25 23:00:00 10.8 5 Sudeste 13 Sudeste 0 -- -- 32
2019-03-25 22:00:00 11.5 4 Este 10 Este 0 -- -- 33
2019-03-25 21:00:00 12.3 3 Este 13 Sudeste 0 -- -- 33
2019-03-25 20:00:00 13.4 2 Sudeste 14 Nordeste 0 -- -- 31
2019-03-25 19:00:00 15.8 10 Nordeste 22 Norte 0 -- -- 29
2019-03-25 18:00:00 17.3 13 Nordeste 27 Norte 0 -- -- 27
2019-03-25 17:00:00 18.4 12 Norte 28 Nordeste 0 -- -- 28
2019-03-25 16:00:00 18.3 10 Nordeste 30 Nordeste 0 -- -- 28
2019-03-25 15:00:00 18.1 14 Nordeste 30 Nordeste 0 -- -- 28
2019-03-25 14:00:00 18.2 13 Nordeste 28 Nordeste 0 -- -- 30
2019-03-25 13:00:00 17.6 11 Nordeste 53 Este 0 -- -- 30
2019-03-25 12:00:00 16.8 12 Nordeste 24 Nordeste 0 -- -- 31
2019-03-25 11:00:00 15.7 11 Nordeste 23 Nordeste 0 -- -- 33
2019-03-25 10:00:00 14.3 5 Nordeste 14 Este 0 -- -- 38
2019-03-25 09:00:00 10.8 0 Calma 6 Sudeste 0 -- -- 44
2019-03-25 08:00:00 8.7 0 Calma 5 Este 0 -- -- 48
2019-03-25 07:00:00 7.7 0 Calma 5 Este 0 -- -- 48
2019-03-25 06:00:00 7.6 2 Este 8 Sudeste 0 -- -- 49
2019-03-25 05:00:00 8 0 Calma 6 Sudeste 0 -- -- 48
2019-03-25 04:00:00 8.7 3 Este 5 Este 0 -- -- 46
2019-03-25 03:00:00 8.7 2 Sur 8 Sudoeste 0 -- -- 46
2019-03-25 02:00:00 8.8 0 Calma 12 Sudoeste 0 -- -- 44
2019-03-25 01:00:00 11.2 5 Norte 26 Sudeste 0 -- -- 41
2019-03-25 00:00:00 12.2 5 Sudeste 23 Sudeste 0 -- -- 40